sensor_id;sensor_type;location;lat;lon;timestamp;P1;durP1;ratioP1;P2;durP2;ratioP2
76863;SDS011;65834;52.364;9.754;2023-12-29T00:01:50;9.57;;;3.03;;
76863;SDS011;65834;52.364;9.754;2023-12-29T00:04:23;5.70;;;1.30;;
76863;SDS011;65834;52.364;9.754;2023-12-29T00:06:53;4.82;;;1.30;;
76863;SDS011;65834;52.364;9.754;2023-12-29T00:09:28;7.17;;;1.57;;
76863;SDS011;65834;52.364;9.754;2023-12-29T00:12:05;4.80;;;1.23;;
76863;SDS011;65834;52.364;9.754;2023-12-29T00:14:47;5.82;;;1.55;;
76863;SDS011;65834;52.364;9.754;2023-12-29T00:17:17;5.33;;;1.47;;
76863;SDS011;65834;52.364;9.754;2023-12-29T00:19:49;4.00;;;1.37;;
76863;SDS011;65834;52.364;9.754;2023-12-29T00:22:20;4.90;;;1.10;;
76863;SDS011;65834;52.364;9.754;2023-12-29T00:24:47;4.33;;;1.37;;
76863;SDS011;65834;52.364;9.754;2023-12-29T00:27:17;4.97;;;1.00;;
76863;SDS011;65834;52.364;9.754;2023-12-29T00:29:47;3.70;;;1.00;;
76863;SDS011;65834;52.364;9.754;2023-12-29T00:32:17;6.40;;;1.73;;
76863;SDS011;65834;52.364;9.754;2023-12-29T00:34:49;7.03;;;2.77;;
76863;SDS011;65834;52.364;9.754;2023-12-29T00:37:20;6.13;;;1.30;;
76863;SDS011;65834;52.364;9.754;2023-12-29T00:39:50;7.97;;;2.00;;
76863;SDS011;65834;52.364;9.754;2023-12-29T00:42:20;3.67;;;1.17;;
76863;SDS011;65834;52.364;9.754;2023-12-29T00:44:50;4.03;;;1.30;;
76863;SDS011;65834;52.364;9.754;2023-12-29T00:47:20;7.83;;;1.40;;
76863;SDS011;65834;52.364;9.754;2023-12-29T00:49:53;7.77;;;1.87;;
76863;SDS011;65834;52.364;9.754;2023-12-29T00:52:22;6.25;;;1.17;;
76863;SDS011;65834;52.364;9.754;2023-12-29T00:54:53;8.50;;;1.30;;
76863;SDS011;65834;52.364;9.754;2023-12-29T00:57:23;6.93;;;1.30;;
76863;SDS011;65834;52.364;9.754;2023-12-29T00:59:52;4.30;;;1.10;;
76863;SDS011;65834;52.364;9.754;2023-12-29T01:02:22;4.67;;;1.50;;
76863;SDS011;65834;52.364;9.754;2023-12-29T01:04:54;4.23;;;1.17;;
76863;SDS011;65834;52.364;9.754;2023-12-29T01:07:24;5.00;;;1.30;;
76863;SDS011;65834;52.364;9.754;2023-12-29T01:09:54;4.57;;;1.23;;
76863;SDS011;65834;52.364;9.754;2023-12-29T01:12:24;10.37;;;1.40;;
76863;SDS011;65834;52.364;9.754;2023-12-29T01:14:54;3.43;;;1.23;;
76863;SDS011;65834;52.364;9.754;2023-12-29T01:17:25;8.33;;;1.70;;
76863;SDS011;65834;52.364;9.754;2023-12-29T01:19:57;8.07;;;1.63;;
76863;SDS011;65834;52.364;9.754;2023-12-29T01:22:35;3.30;;;1.10;;
76863;SDS011;65834;52.364;9.754;2023-12-29T01:25:05;4.50;;;1.20;;
76863;SDS011;65834;52.364;9.754;2023-12-29T01:27:35;6.27;;;1.27;;
76863;SDS011;65834;52.364;9.754;2023-12-29T01:30:06;3.87;;;1.53;;
76863;SDS011;65834;52.364;9.754;2023-12-29T01:32:36;5.53;;;1.10;;
76863;SDS011;65834;52.364;9.754;2023-12-29T01:35:09;5.93;;;1.40;;
76863;SDS011;65834;52.364;9.754;2023-12-29T01:37:38;7.63;;;1.23;;
76863;SDS011;65834;52.364;9.754;2023-12-29T01:40:09;3.10;;;1.10;;
76863;SDS011;65834;52.364;9.754;2023-12-29T01:42:40;6.43;;;1.63;;
76863;SDS011;65834;52.364;9.754;2023-12-29T01:45:13;5.57;;;1.33;;
76863;SDS011;65834;52.364;9.754;2023-12-29T01:47:50;6.90;;;1.47;;
76863;SDS011;65834;52.364;9.754;2023-12-29T01:50:23;5.90;;;1.30;;
76863;SDS011;65834;52.364;9.754;2023-12-29T01:52:53;5.47;;;1.00;;
76863;SDS011;65834;52.364;9.754;2023-12-29T01:55:23;3.13;;;1.00;;
76863;SDS011;65834;52.364;9.754;2023-12-29T01:57:55;7.00;;;1.60;;
76863;SDS011;65834;52.364;9.754;2023-12-29T02:00:26;4.43;;;1.40;;
76863;SDS011;65834;52.364;9.754;2023-12-29T02:02:57;4.90;;;1.40;;
76863;SDS011;65834;52.364;9.754;2023-12-29T02:05:30;7.03;;;1.57;;
76863;SDS011;65834;52.364;9.754;2023-12-29T02:08:03;7.67;;;1.20;;
76863;SDS011;65834;52.364;9.754;2023-12-29T02:10:35;5.40;;;1.40;;
76863;SDS011;65834;52.364;9.754;2023-12-29T02:13:05;9.00;;;1.30;;
76863;SDS011;65834;52.364;9.754;2023-12-29T02:15:35;7.03;;;1.47;;
76863;SDS011;65834;52.364;9.754;2023-12-29T02:18:05;4.93;;;1.23;;
76863;SDS011;65834;52.364;9.754;2023-12-29T02:20:39;3.50;;;1.10;;
76863;SDS011;65834;52.364;9.754;2023-12-29T02:23:09;4.93;;;1.83;;
76863;SDS011;65834;52.364;9.754;2023-12-29T02:25:41;4.33;;;1.27;;
76863;SDS011;65834;52.364;9.754;2023-12-29T02:28:12;7.13;;;2.10;;
76863;SDS011;65834;52.364;9.754;2023-12-29T02:30:51;6.20;;;1.20;;
76863;SDS011;65834;52.364;9.754;2023-12-29T02:33:29;7.07;;;1.20;;
76863;SDS011;65834;52.364;9.754;2023-12-29T02:36:06;6.33;;;1.30;;
76863;SDS011;65834;52.364;9.754;2023-12-29T02:38:36;4.03;;;1.40;;
76863;SDS011;65834;52.364;9.754;2023-12-29T02:41:08;4.13;;;1.30;;
76863;SDS011;65834;52.364;9.754;2023-12-29T02:43:40;4.97;;;1.30;;
76863;SDS011;65834;52.364;9.754;2023-12-29T02:46:09;7.17;;;1.67;;
76863;SDS011;65834;52.364;9.754;2023-12-29T02:48:39;3.73;;;1.07;;
76863;SDS011;65834;52.364;9.754;2023-12-29T02:51:09;4.00;;;1.20;;
76863;SDS011;65834;52.364;9.754;2023-12-29T02:53:39;5.17;;;1.30;;
76863;SDS011;65834;52.364;9.754;2023-12-29T02:56:11;5.67;;;1.33;;
76863;SDS011;65834;52.364;9.754;2023-12-29T02:58:41;4.10;;;0.98;;
76863;SDS011;65834;52.364;9.754;2023-12-29T03:01:12;3.67;;;1.23;;
76863;SDS011;65834;52.364;9.754;2023-12-29T03:03:42;4.80;;;1.20;;
76863;SDS011;65834;52.364;9.754;2023-12-29T03:06:12;6.00;;;1.00;;
76863;SDS011;65834;52.364;9.754;2023-12-29T03:08:41;6.10;;;1.07;;
76863;SDS011;65834;52.364;9.754;2023-12-29T03:11:08;5.53;;;1.33;;
76863;SDS011;65834;52.364;9.754;2023-12-29T03:13:41;3.53;;;0.90;;
76863;SDS011;65834;52.364;9.754;2023-12-29T03:16:23;4.47;;;1.08;;
76863;SDS011;65834;52.364;9.754;2023-12-29T03:18:52;3.90;;;1.47;;
76863;SDS011;65834;52.364;9.754;2023-12-29T03:21:23;4.43;;;1.07;;
76863;SDS011;65834;52.364;9.754;2023-12-29T03:23:52;6.77;;;2.03;;
76863;SDS011;65834;52.364;9.754;2023-12-29T03:26:25;3.90;;;1.00;;
76863;SDS011;65834;52.364;9.754;2023-12-29T03:28:54;7.47;;;1.63;;
76863;SDS011;65834;52.364;9.754;2023-12-29T03:31:24;3.50;;;1.10;;
76863;SDS011;65834;52.364;9.754;2023-12-29T03:33:54;6.97;;;1.67;;
76863;SDS011;65834;52.364;9.754;2023-12-29T03:36:24;3.17;;;0.80;;
76863;SDS011;65834;52.364;9.754;2023-12-29T03:38:53;6.00;;;1.60;;
76863;SDS011;65834;52.364;9.754;2023-12-29T03:41:26;3.77;;;1.27;;
76863;SDS011;65834;52.364;9.754;2023-12-29T03:43:55;6.70;;;1.13;;
76863;SDS011;65834;52.364;9.754;2023-12-29T03:46:26;5.27;;;1.40;;
76863;SDS011;65834;52.364;9.754;2023-12-29T03:48:56;4.83;;;1.37;;
76863;SDS011;65834;52.364;9.754;2023-12-29T03:51:27;3.97;;;1.23;;
76863;SDS011;65834;52.364;9.754;2023-12-29T03:53:56;3.33;;;1.00;;
76863;SDS011;65834;52.364;9.754;2023-12-29T03:56:31;5.97;;;1.02;;
76863;SDS011;65834;52.364;9.754;2023-12-29T03:59:01;4.50;;;1.30;;
76863;SDS011;65834;52.364;9.754;2023-12-29T04:01:32;1.73;;;0.60;;
76863;SDS011;65834;52.364;9.754;2023-12-29T04:04:03;3.42;;;1.13;;
76863;SDS011;65834;52.364;9.754;2023-12-29T04:06:33;0.70;;;0.53;;
76863;SDS011;65834;52.364;9.754;2023-12-29T04:09:03;3.03;;;0.87;;
76863;SDS011;65834;52.364;9.754;2023-12-29T04:14:08;5.17;;;0.90;;
76863;SDS011;65834;52.364;9.754;2023-12-29T04:16:39;2.63;;;0.90;;
76863;SDS011;65834;52.364;9.754;2023-12-29T04:19:09;5.63;;;1.07;;
76863;SDS011;65834;52.364;9.754;2023-12-29T04:21:41;2.20;;;0.68;;
76863;SDS011;65834;52.364;9.754;2023-12-29T04:24:11;3.77;;;0.90;;
76863;SDS011;65834;52.364;9.754;2023-12-29T04:26:44;3.67;;;0.87;;
76863;SDS011;65834;52.364;9.754;2023-12-29T04:29:13;3.63;;;0.70;;
76863;SDS011;65834;52.364;9.754;2023-12-29T04:31:43;2.47;;;0.80;;
76863;SDS011;65834;52.364;9.754;2023-12-29T04:34:13;5.60;;;1.10;;
76863;SDS011;65834;52.364;9.754;2023-12-29T04:36:43;4.67;;;0.97;;
76863;SDS011;65834;52.364;9.754;2023-12-29T04:39:15;5.10;;;1.00;;
76863;SDS011;65834;52.364;9.754;2023-12-29T04:41:47;3.53;;;0.87;;
76863;SDS011;65834;52.364;9.754;2023-12-29T04:44:17;2.92;;;1.02;;
76863;SDS011;65834;52.364;9.754;2023-12-29T04:46:47;3.13;;;0.70;;
76863;SDS011;65834;52.364;9.754;2023-12-29T04:49:16;2.17;;;0.80;;
76863;SDS011;65834;52.364;9.754;2023-12-29T04:51:46;3.30;;;0.90;;
76863;SDS011;65834;52.364;9.754;2023-12-29T04:54:16;2.37;;;0.87;;
76863;SDS011;65834;52.364;9.754;2023-12-29T04:56:48;3.93;;;0.70;;
76863;SDS011;65834;52.364;9.754;2023-12-29T04:59:18;1.88;;;1.50;;
76863;SDS011;65834;52.364;9.754;2023-12-29T05:01:47;1.67;;;0.73;;
76863;SDS011;65834;52.364;9.754;2023-12-29T05:04:17;2.20;;;0.80;;
76863;SDS011;65834;52.364;9.754;2023-12-29T05:06:47;3.30;;;1.20;;
76863;SDS011;65834;52.364;9.754;2023-12-29T05:09:17;3.83;;;0.70;;
76863;SDS011;65834;52.364;9.754;2023-12-29T05:11:49;2.07;;;0.70;;
76863;SDS011;65834;52.364;9.754;2023-12-29T05:14:19;3.22;;;0.82;;
76863;SDS011;65834;52.364;9.754;2023-12-29T05:16:48;2.37;;;0.80;;
76863;SDS011;65834;52.364;9.754;2023-12-29T05:19:18;2.03;;;1.30;;
76863;SDS011;65834;52.364;9.754;2023-12-29T05:21:48;3.07;;;1.10;;
76863;SDS011;65834;52.364;9.754;2023-12-29T05:24:18;2.93;;;1.03;;
76863;SDS011;65834;52.364;9.754;2023-12-29T05:26:50;4.83;;;1.20;;
76863;SDS011;65834;52.364;9.754;2023-12-29T05:29:20;3.78;;;1.10;;
76863;SDS011;65834;52.364;9.754;2023-12-29T05:31:50;3.70;;;1.10;;
76863;SDS011;65834;52.364;9.754;2023-12-29T05:34:19;1.70;;;0.80;;
76863;SDS011;65834;52.364;9.754;2023-12-29T05:36:49;3.73;;;1.00;;
76863;SDS011;65834;52.364;9.754;2023-12-29T05:39:19;6.33;;;1.30;;
76863;SDS011;65834;52.364;9.754;2023-12-29T05:41:51;5.13;;;1.20;;
76863;SDS011;65834;52.364;9.754;2023-12-29T05:44:21;2.50;;;1.02;;
76863;SDS011;65834;52.364;9.754;2023-12-29T05:46:50;4.43;;;1.20;;
76863;SDS011;65834;52.364;9.754;2023-12-29T05:49:23;2.43;;;1.20;;
76863;SDS011;65834;52.364;9.754;2023-12-29T05:51:53;2.83;;;1.02;;
76863;SDS011;65834;52.364;9.754;2023-12-29T05:54:23;3.87;;;1.30;;
76863;SDS011;65834;52.364;9.754;2023-12-29T05:56:56;4.67;;;1.50;;
76863;SDS011;65834;52.364;9.754;2023-12-29T05:59:25;6.47;;;1.77;;
76863;SDS011;65834;52.364;9.754;2023-12-29T06:01:55;5.97;;;1.70;;
76863;SDS011;65834;52.364;9.754;2023-12-29T06:04:25;4.73;;;1.50;;
76863;SDS011;65834;52.364;9.754;2023-12-29T06:06:54;4.37;;;1.30;;
76863;SDS011;65834;52.364;9.754;2023-12-29T06:09:24;4.33;;;1.53;;
76863;SDS011;65834;52.364;9.754;2023-12-29T06:11:56;9.20;;;1.83;;
76863;SDS011;65834;52.364;9.754;2023-12-29T06:14:26;6.18;;;1.70;;
76863;SDS011;65834;52.364;9.754;2023-12-29T06:16:55;6.17;;;1.40;;
76863;SDS011;65834;52.364;9.754;2023-12-29T06:19:26;6.53;;;2.03;;
76863;SDS011;65834;52.364;9.754;2023-12-29T06:21:58;5.07;;;1.45;;
76863;SDS011;65834;52.364;9.754;2023-12-29T06:24:28;4.40;;;2.07;;
76863;SDS011;65834;52.364;9.754;2023-12-29T06:27:00;6.33;;;1.47;;
76863;SDS011;65834;52.364;9.754;2023-12-29T06:29:30;8.90;;;1.60;;
76863;SDS011;65834;52.364;9.754;2023-12-29T06:31:59;9.00;;;2.00;;
76863;SDS011;65834;52.364;9.754;2023-12-29T06:34:29;7.67;;;1.60;;
76863;SDS011;65834;52.364;9.754;2023-12-29T06:36:59;8.30;;;2.07;;
76863;SDS011;65834;52.364;9.754;2023-12-29T06:39:29;7.10;;;1.90;;
76863;SDS011;65834;52.364;9.754;2023-12-29T06:42:01;5.97;;;1.57;;
76863;SDS011;65834;52.364;9.754;2023-12-29T06:44:39;6.27;;;1.70;;
76863;SDS011;65834;52.364;9.754;2023-12-29T06:47:09;5.83;;;1.90;;
76863;SDS011;65834;52.364;9.754;2023-12-29T06:49:40;7.47;;;2.03;;
76863;SDS011;65834;52.364;9.754;2023-12-29T06:52:10;8.70;;;2.03;;
76863;SDS011;65834;52.364;9.754;2023-12-29T06:54:39;7.43;;;2.00;;
76863;SDS011;65834;52.364;9.754;2023-12-29T06:57:12;6.37;;;2.00;;
76863;SDS011;65834;52.364;9.754;2023-12-29T06:59:43;8.73;;;2.43;;
76863;SDS011;65834;52.364;9.754;2023-12-29T07:02:12;6.53;;;2.13;;
76863;SDS011;65834;52.364;9.754;2023-12-29T07:04:42;5.70;;;2.00;;
76863;SDS011;65834;52.364;9.754;2023-12-29T07:07:12;10.93;;;2.40;;
76863;SDS011;65834;52.364;9.754;2023-12-29T07:09:42;9.87;;;2.47;;
76863;SDS011;65834;52.364;9.754;2023-12-29T07:12:14;7.00;;;1.67;;
76863;SDS011;65834;52.364;9.754;2023-12-29T07:14:44;6.33;;;1.80;;
76863;SDS011;65834;52.364;9.754;2023-12-29T07:17:14;7.17;;;1.93;;
76863;SDS011;65834;52.364;9.754;2023-12-29T07:19:44;7.30;;;1.80;;
76863;SDS011;65834;52.364;9.754;2023-12-29T07:22:13;7.43;;;2.23;;
76863;SDS011;65834;52.364;9.754;2023-12-29T07:24:43;8.43;;;2.43;;
76863;SDS011;65834;52.364;9.754;2023-12-29T07:27:15;5.17;;;1.53;;
76863;SDS011;65834;52.364;9.754;2023-12-29T07:29:45;8.05;;;1.73;;
76863;SDS011;65834;52.364;9.754;2023-12-29T07:32:14;7.93;;;2.37;;
76863;SDS011;65834;52.364;9.754;2023-12-29T07:34:44;9.67;;;2.10;;
76863;SDS011;65834;52.364;9.754;2023-12-29T07:37:15;6.23;;;1.73;;
76863;SDS011;65834;52.364;9.754;2023-12-29T07:39:45;5.13;;;1.70;;
76863;SDS011;65834;52.364;9.754;2023-12-29T07:42:18;6.50;;;2.03;;
76863;SDS011;65834;52.364;9.754;2023-12-29T07:44:48;8.95;;;1.92;;
76863;SDS011;65834;52.364;9.754;2023-12-29T07:47:18;7.10;;;1.77;;
76863;SDS011;65834;52.364;9.754;2023-12-29T07:49:47;7.80;;;2.03;;
76863;SDS011;65834;52.364;9.754;2023-12-29T07:52:17;8.47;;;1.90;;
76863;SDS011;65834;52.364;9.754;2023-12-29T07:54:47;7.10;;;1.83;;
76863;SDS011;65834;52.364;9.754;2023-12-29T07:57:19;8.27;;;2.00;;
76863;SDS011;65834;52.364;9.754;2023-12-29T07:59:49;7.57;;;2.05;;
76863;SDS011;65834;52.364;9.754;2023-12-29T08:02:18;7.83;;;2.00;;
76863;SDS011;65834;52.364;9.754;2023-12-29T08:04:48;10.80;;;2.20;;
76863;SDS011;65834;52.364;9.754;2023-12-29T08:07:18;8.13;;;1.90;;
76863;SDS011;65834;52.364;9.754;2023-12-29T08:09:51;12.13;;;2.10;;
76863;SDS011;65834;52.364;9.754;2023-12-29T08:12:23;10.17;;;2.00;;
76863;SDS011;65834;52.364;9.754;2023-12-29T08:14:54;8.73;;;1.73;;
76863;SDS011;65834;52.364;9.754;2023-12-29T08:17:24;8.20;;;1.77;;
76863;SDS011;65834;52.364;9.754;2023-12-29T08:19:54;8.77;;;2.00;;
76863;SDS011;65834;52.364;9.754;2023-12-29T08:22:24;9.40;;;1.73;;
76863;SDS011;65834;52.364;9.754;2023-12-29T08:24:55;8.87;;;1.60;;
76863;SDS011;65834;52.364;9.754;2023-12-29T08:27:27;5.13;;;1.63;;
76863;SDS011;65834;52.364;9.754;2023-12-29T08:29:56;7.90;;;1.83;;
76863;SDS011;65834;52.364;9.754;2023-12-29T08:32:26;7.67;;;1.83;;
76863;SDS011;65834;52.364;9.754;2023-12-29T08:34:56;8.67;;;2.07;;
76863;SDS011;65834;52.364;9.754;2023-12-29T08:37:27;7.57;;;1.90;;
76863;SDS011;65834;52.364;9.754;2023-12-29T08:39:57;10.47;;;1.90;;
76863;SDS011;65834;52.364;9.754;2023-12-29T08:42:32;10.70;;;2.80;;
76863;SDS011;65834;52.364;9.754;2023-12-29T08:45:02;7.18;;;2.30;;
76863;SDS011;65834;52.364;9.754;2023-12-29T08:47:35;7.70;;;2.10;;
76863;SDS011;65834;52.364;9.754;2023-12-29T08:50:05;5.93;;;1.90;;
76863;SDS011;65834;52.364;9.754;2023-12-29T08:52:35;9.13;;;2.23;;
76863;SDS011;65834;52.364;9.754;2023-12-29T08:55:05;9.97;;;1.70;;
76863;SDS011;65834;52.364;9.754;2023-12-29T08:57:39;9.40;;;1.97;;
76863;SDS011;65834;52.364;9.754;2023-12-29T09:00:09;8.00;;;1.90;;
76863;SDS011;65834;52.364;9.754;2023-12-29T09:02:39;8.03;;;1.90;;
76863;SDS011;65834;52.364;9.754;2023-12-29T09:05:10;6.97;;;1.60;;
76863;SDS011;65834;52.364;9.754;2023-12-29T09:07:39;7.80;;;2.43;;
76863;SDS011;65834;52.364;9.754;2023-12-29T09:10:09;5.27;;;1.53;;
76863;SDS011;65834;52.364;9.754;2023-12-29T09:12:42;7.47;;;1.50;;
76863;SDS011;65834;52.364;9.754;2023-12-29T09:15:12;9.35;;;1.88;;
76863;SDS011;65834;52.364;9.754;2023-12-29T09:17:42;7.23;;;1.60;;
76863;SDS011;65834;52.364;9.754;2023-12-29T09:20:11;8.23;;;2.17;;
76863;SDS011;65834;52.364;9.754;2023-12-29T09:22:41;3.83;;;1.23;;
76863;SDS011;65834;52.364;9.754;2023-12-29T09:25:11;10.00;;;2.10;;
76863;SDS011;65834;52.364;9.754;2023-12-29T09:27:43;5.70;;;1.60;;
76863;SDS011;65834;52.364;9.754;2023-12-29T09:30:16;10.20;;;1.70;;
76863;SDS011;65834;52.364;9.754;2023-12-29T09:32:45;10.63;;;2.03;;
76863;SDS011;65834;52.364;9.754;2023-12-29T09:35:15;5.43;;;1.60;;
76863;SDS011;65834;52.364;9.754;2023-12-29T09:37:47;8.03;;;1.97;;
76863;SDS011;65834;52.364;9.754;2023-12-29T09:40:17;10.70;;;2.23;;
76863;SDS011;65834;52.364;9.754;2023-12-29T09:42:49;8.00;;;1.87;;
76863;SDS011;65834;52.364;9.754;2023-12-29T09:45:21;7.65;;;1.90;;
76863;SDS011;65834;52.364;9.754;2023-12-29T09:47:53;8.70;;;1.60;;
76863;SDS011;65834;52.364;9.754;2023-12-29T09:50:28;5.73;;;1.50;;
76863;SDS011;65834;52.364;9.754;2023-12-29T09:52:57;4.73;;;1.63;;
76863;SDS011;65834;52.364;9.754;2023-12-29T09:55:29;4.97;;;1.53;;
76863;SDS011;65834;52.364;9.754;2023-12-29T09:58:02;6.43;;;1.30;;
76863;SDS011;65834;52.364;9.754;2023-12-29T10:00:34;6.70;;;1.50;;
76863;SDS011;65834;52.364;9.754;2023-12-29T10:03:04;5.43;;;1.10;;
76863;SDS011;65834;52.364;9.754;2023-12-29T10:05:35;4.53;;;0.90;;
76863;SDS011;65834;52.364;9.754;2023-12-29T10:08:05;5.13;;;1.00;;
76863;SDS011;65834;52.364;9.754;2023-12-29T10:10:39;2.87;;;1.10;;
76863;SDS011;65834;52.364;9.754;2023-12-29T10:13:14;3.15;;;1.38;;
76863;SDS011;65834;52.364;9.754;2023-12-29T10:15:47;2.90;;;0.50;;
76863;SDS011;65834;52.364;9.754;2023-12-29T10:18:22;6.47;;;1.00;;
76863;SDS011;65834;52.364;9.754;2023-12-29T10:20:59;4.90;;;0.90;;
76863;SDS011;65834;52.364;9.754;2023-12-29T10:23:32;4.63;;;0.90;;
76863;SDS011;65834;52.364;9.754;2023-12-29T10:26:05;5.50;;;1.00;;
76863;SDS011;65834;52.364;9.754;2023-12-29T10:28:42;3.87;;;0.90;;
76863;SDS011;65834;52.364;9.754;2023-12-29T10:31:13;2.80;;;1.00;;
76863;SDS011;65834;52.364;9.754;2023-12-29T10:33:44;4.25;;;0.93;;
76863;SDS011;65834;52.364;9.754;2023-12-29T10:36:17;5.13;;;2.23;;
76863;SDS011;65834;52.364;9.754;2023-12-29T10:38:47;6.93;;;1.03;;
76863;SDS011;65834;52.364;9.754;2023-12-29T10:41:17;5.90;;;1.03;;
76863;SDS011;65834;52.364;9.754;2023-12-29T10:43:50;2.93;;;0.90;;
76863;SDS011;65834;52.364;9.754;2023-12-29T10:46:24;2.07;;;0.60;;
76863;SDS011;65834;52.364;9.754;2023-12-29T10:48:55;3.47;;;1.00;;
76863;SDS011;65834;52.364;9.754;2023-12-29T10:51:36;3.17;;;1.23;;
76863;SDS011;65834;52.364;9.754;2023-12-29T10:54:07;4.70;;;1.03;;
76863;SDS011;65834;52.364;9.754;2023-12-29T10:56:36;4.47;;;1.30;;
76863;SDS011;65834;52.364;9.754;2023-12-29T10:59:08;7.13;;;1.80;;
76863;SDS011;65834;52.364;9.754;2023-12-29T11:01:41;3.27;;;0.80;;
76863;SDS011;65834;52.364;9.754;2023-12-29T11:04:15;3.13;;;0.97;;
76863;SDS011;65834;52.364;9.754;2023-12-29T11:06:51;6.40;;;1.20;;
76863;SDS011;65834;52.364;9.754;2023-12-29T11:09:26;1.53;;;0.73;;
76863;SDS011;65834;52.364;9.754;2023-12-29T11:11:58;6.23;;;1.20;;
76863;SDS011;65834;52.364;9.754;2023-12-29T11:14:32;3.00;;;0.90;;
76863;SDS011;65834;52.364;9.754;2023-12-29T11:17:02;6.18;;;1.38;;
76863;SDS011;65834;52.364;9.754;2023-12-29T11:19:32;2.70;;;1.03;;
76863;SDS011;65834;52.364;9.754;2023-12-29T11:22:03;2.47;;;0.90;;
76863;SDS011;65834;52.364;9.754;2023-12-29T11:27:16;2.53;;;0.90;;
76863;SDS011;65834;52.364;9.754;2023-12-29T11:29:48;2.70;;;1.10;;
76863;SDS011;65834;52.364;9.754;2023-12-29T11:32:20;3.67;;;0.90;;
76863;SDS011;65834;52.364;9.754;2023-12-29T11:34:56;6.70;;;1.40;;
76863;SDS011;65834;52.364;9.754;2023-12-29T11:37:35;2.63;;;1.07;;
76863;SDS011;65834;52.364;9.754;2023-12-29T11:40:17;3.42;;;0.90;;
76863;SDS011;65834;52.364;9.754;2023-12-29T11:42:51;2.70;;;1.00;;
76863;SDS011;65834;52.364;9.754;2023-12-29T11:45:35;2.90;;;1.08;;
76863;SDS011;65834;52.364;9.754;2023-12-29T11:48:06;3.40;;;0.90;;
76863;SDS011;65834;52.364;9.754;2023-12-29T11:50:38;4.85;;;1.13;;
76863;SDS011;65834;52.364;9.754;2023-12-29T11:56:00;2.90;;;0.90;;
76863;SDS011;65834;52.364;9.754;2023-12-29T11:58:33;2.37;;;0.97;;
76863;SDS011;65834;52.364;9.754;2023-12-29T12:01:06;1.03;;;0.70;;
76863;SDS011;65834;52.364;9.754;2023-12-29T12:03:36;5.57;;;1.10;;
76863;SDS011;65834;52.364;9.754;2023-12-29T12:06:05;2.60;;;1.00;;
76863;SDS011;65834;52.364;9.754;2023-12-29T12:08:36;3.10;;;0.97;;
76863;SDS011;65834;52.364;9.754;2023-12-29T12:14:06;3.43;;;0.83;;
76863;SDS011;65834;52.364;9.754;2023-12-29T12:16:51;1.27;;;0.90;;
76863;SDS011;65834;52.364;9.754;2023-12-29T12:19:20;1.93;;;1.00;;
76863;SDS011;65834;52.364;9.754;2023-12-29T12:21:50;2.03;;;0.90;;
76863;SDS011;65834;52.364;9.754;2023-12-29T12:24:23;4.25;;;1.17;;
76863;SDS011;65834;52.364;9.754;2023-12-29T12:26:53;1.13;;;0.70;;
76863;SDS011;65834;52.364;9.754;2023-12-29T12:29:23;3.10;;;1.13;;
76863;SDS011;65834;52.364;9.754;2023-12-29T12:31:57;2.47;;;0.93;;
76863;SDS011;65834;52.364;9.754;2023-12-29T12:34:36;5.80;;;2.23;;
76863;SDS011;65834;52.364;9.754;2023-12-29T12:37:06;1.20;;;1.03;;
76863;SDS011;65834;52.364;9.754;2023-12-29T12:39:38;3.57;;;1.07;;
76863;SDS011;65834;52.364;9.754;2023-12-29T12:42:08;1.33;;;1.10;;
76863;SDS011;65834;52.364;9.754;2023-12-29T12:44:38;2.00;;;1.03;;
76863;SDS011;65834;52.364;9.754;2023-12-29T12:47:15;2.30;;;1.10;;
76863;SDS011;65834;52.364;9.754;2023-12-29T12:49:48;3.57;;;1.13;;
76863;SDS011;65834;52.364;9.754;2023-12-29T12:52:18;2.27;;;0.90;;
76863;SDS011;65834;52.364;9.754;2023-12-29T12:54:48;3.03;;;1.30;;
76863;SDS011;65834;52.364;9.754;2023-12-29T12:57:18;0.60;;;0.60;;
76863;SDS011;65834;52.364;9.754;2023-12-29T12:59:49;4.60;;;1.00;;
76863;SDS011;65834;52.364;9.754;2023-12-29T13:02:23;2.93;;;1.00;;
76863;SDS011;65834;52.364;9.754;2023-12-29T13:04:54;1.60;;;1.20;;
76863;SDS011;65834;52.364;9.754;2023-12-29T13:07:24;1.53;;;0.90;;
76863;SDS011;65834;52.364;9.754;2023-12-29T13:09:55;1.70;;;0.80;;
76863;SDS011;65834;52.364;9.754;2023-12-29T13:12:26;3.33;;;1.03;;
76863;SDS011;65834;52.364;9.754;2023-12-29T13:15:04;3.40;;;1.10;;
76863;SDS011;65834;52.364;9.754;2023-12-29T13:17:37;1.87;;;1.00;;
76863;SDS011;65834;52.364;9.754;2023-12-29T13:20:07;1.33;;;1.00;;
76863;SDS011;65834;52.364;9.754;2023-12-29T13:22:38;2.47;;;0.93;;
76863;SDS011;65834;52.364;9.754;2023-12-29T13:25:08;1.60;;;1.00;;
76863;SDS011;65834;52.364;9.754;2023-12-29T13:27:39;0.80;;;0.80;;
76863;SDS011;65834;52.364;9.754;2023-12-29T13:30:10;2.93;;;1.03;;
76863;SDS011;65834;52.364;9.754;2023-12-29T13:32:44;2.58;;;1.27;;
76863;SDS011;65834;52.364;9.754;2023-12-29T13:35:17;1.50;;;1.30;;
76863;SDS011;65834;52.364;9.754;2023-12-29T13:37:51;1.70;;;1.17;;
76863;SDS011;65834;52.364;9.754;2023-12-29T13:40:33;2.13;;;1.30;;
76863;SDS011;65834;52.364;9.754;2023-12-29T13:43:08;2.07;;;1.10;;
76863;SDS011;65834;52.364;9.754;2023-12-29T13:45:40;3.03;;;1.17;;
76863;SDS011;65834;52.364;9.754;2023-12-29T13:48:14;1.87;;;0.90;;
76863;SDS011;65834;52.364;9.754;2023-12-29T13:50:45;2.53;;;1.10;;
76863;SDS011;65834;52.364;9.754;2023-12-29T13:53:17;1.77;;;0.90;;
76863;SDS011;65834;52.364;9.754;2023-12-29T13:55:48;1.90;;;1.10;;
76863;SDS011;65834;52.364;9.754;2023-12-29T13:58:18;2.10;;;1.00;;
76863;SDS011;65834;52.364;9.754;2023-12-29T14:00:53;1.50;;;0.90;;
76863;SDS011;65834;52.364;9.754;2023-12-29T14:03:37;3.23;;;1.00;;
76863;SDS011;65834;52.364;9.754;2023-12-29T14:06:18;3.00;;;1.10;;
76863;SDS011;65834;52.364;9.754;2023-12-29T14:08:50;3.47;;;1.00;;
76863;SDS011;65834;52.364;9.754;2023-12-29T14:11:20;3.13;;;1.20;;
76863;SDS011;65834;52.364;9.754;2023-12-29T14:13:50;1.73;;;1.00;;
76863;SDS011;65834;52.364;9.754;2023-12-29T14:16:21;1.90;;;1.00;;
76863;SDS011;65834;52.364;9.754;2023-12-29T14:18:57;3.90;;;1.17;;
76863;SDS011;65834;52.364;9.754;2023-12-29T14:21:28;1.73;;;1.10;;
76863;SDS011;65834;52.364;9.754;2023-12-29T14:24:06;2.83;;;1.17;;
76863;SDS011;65834;52.364;9.754;2023-12-29T14:26:37;4.73;;;1.63;;
76863;SDS011;65834;52.364;9.754;2023-12-29T14:29:11;2.53;;;1.30;;
76863;SDS011;65834;52.364;9.754;2023-12-29T14:31:41;2.87;;;1.23;;
76863;SDS011;65834;52.364;9.754;2023-12-29T14:34:15;4.23;;;1.30;;
76863;SDS011;65834;52.364;9.754;2023-12-29T14:36:45;2.23;;;1.23;;
76863;SDS011;65834;52.364;9.754;2023-12-29T14:39:17;1.90;;;0.93;;
76863;SDS011;65834;52.364;9.754;2023-12-29T14:41:55;3.67;;;1.40;;
76863;SDS011;65834;52.364;9.754;2023-12-29T14:44:24;3.80;;;1.40;;
76863;SDS011;65834;52.364;9.754;2023-12-29T14:46:54;5.00;;;1.50;;
76863;SDS011;65834;52.364;9.754;2023-12-29T14:49:26;5.53;;;1.40;;
76863;SDS011;65834;52.364;9.754;2023-12-29T14:51:56;5.03;;;1.50;;
76863;SDS011;65834;52.364;9.754;2023-12-29T14:54:26;4.43;;;1.40;;
76863;SDS011;65834;52.364;9.754;2023-12-29T14:56:55;4.87;;;1.33;;
76863;SDS011;65834;52.364;9.754;2023-12-29T14:59:36;3.97;;;1.37;;
76863;SDS011;65834;52.364;9.754;2023-12-29T15:02:07;6.40;;;1.50;;
76863;SDS011;65834;52.364;9.754;2023-12-29T15:04:39;2.90;;;1.33;;
76863;SDS011;65834;52.364;9.754;2023-12-29T15:07:09;5.22;;;1.55;;
76863;SDS011;65834;52.364;9.754;2023-12-29T15:09:39;5.17;;;1.70;;
76863;SDS011;65834;52.364;9.754;2023-12-29T15:12:09;4.10;;;1.47;;
76863;SDS011;65834;52.364;9.754;2023-12-29T15:14:38;3.63;;;1.40;;
76863;SDS011;65834;52.364;9.754;2023-12-29T15:17:08;2.17;;;1.00;;
76863;SDS011;65834;52.364;9.754;2023-12-29T15:19:40;6.27;;;1.53;;
76863;SDS011;65834;52.364;9.754;2023-12-29T15:22:10;2.58;;;1.30;;
76863;SDS011;65834;52.364;9.754;2023-12-29T15:24:40;3.53;;;1.33;;